Time;durP1;ratioP1;P1;durP2;ratioP2;P2;SDS_P1;SDS_P2;PMS_P1;PMS_P2;Temp;Humidity;BMP_temperature;BMP_pressure;BME280_temperature;BME280_humidity;BME280_pressure;Samples;Min_cycle;Max_cycle;Signal;HPM_P1;HPM_P2
2023/02/06 00:00:37;;;;;;;37.97;4.80;;;3.80;99.90;;;;;;6186986;23;20011;-72
2023/02/06 00:03:03;;;;;;;33.50;5.95;;;3.70;99.90;;;;;;6186731;23;20020;-72
2023/02/06 00:05:29;;;;;;;17.23;2.97;;;3.60;99.90;;;;;;6186688;23;20013;-72
2023/02/06 00:07:54;;;;;;;31.50;5.05;;;3.50;99.90;;;;;;6186843;23;20016;-72
2023/02/06 00:10:20;;;;;;;29.75;4.65;;;3.20;99.90;;;;;;6186508;23;20013;-72
2023/02/06 00:12:46;;;;;;;25.45;3.55;;;3.00;99.90;;;;;;6186900;23;20009;-72
2023/02/06 00:15:12;;;;;;;34.47;6.63;;;3.00;99.90;;;;;;6185084;23;20023;-72
2023/02/06 00:17:38;;;;;;;33.53;6.07;;;3.20;99.90;;;;;;6187040;23;20143;-72
2023/02/06 00:20:05;;;;;;;30.05;5.82;;;3.20;99.90;;;;;;6186508;23;20445;-72
2023/02/06 00:22:31;;;;;;;25.50;5.28;;;3.20;99.90;;;;;;6185560;23;20053;-72
2023/02/06 00:24:57;;;;;;;26.75;5.15;;;3.30;99.90;;;;;;6186660;23;20013;-72
2023/02/06 00:27:22;;;;;;;33.83;4.85;;;3.30;99.90;;;;;;6186457;23;20023;-72
2023/02/06 00:29:48;;;;;;;40.67;6.78;;;3.30;99.90;;;;;;6185740;23;20024;-72
2023/02/06 00:32:14;;;;;;;35.70;5.75;;;3.40;99.90;;;;;;6187298;23;20017;-72
2023/02/06 00:34:39;;;;;;;33.33;5.72;;;3.60;99.90;;;;;;6186350;23;20024;-72
2023/02/06 00:37:05;;;;;;;31.48;5.13;;;3.70;99.90;;;;;;6186594;23;20092;-72
2023/02/06 00:39:31;;;;;;;30.13;4.70;;;3.70;99.90;;;;;;6186589;23;20013;-72
2023/02/06 00:41:56;;;;;;;33.28;5.03;;;3.70;99.90;;;;;;6184585;23;20494;-72
2023/02/06 00:44:22;;;;;;;28.27;4.85;;;3.60;99.90;;;;;;6184761;23;20021;-72
2023/02/06 00:46:48;;;;;;;23.48;4.13;;;3.60;99.90;;;;;;6186637;23;20009;-72
2023/02/06 00:49:14;;;;;;;21.83;3.88;;;3.20;99.90;;;;;;6186679;23;20390;-72
2023/02/06 00:51:40;;;;;;;28.00;4.28;;;3.10;99.90;;;;;;6186601;23;20315;-72
2023/02/06 00:54:06;;;;;;;30.48;5.85;;;3.10;99.90;;;;;;6186539;23;20039;-72
2023/02/06 00:56:32;;;;;;;34.22;5.45;;;3.20;99.90;;;;;;6186519;23;20482;-73
2023/02/06 00:58:58;;;;;;;27.63;4.38;;;3.30;99.90;;;;;;6186512;23;20438;-72
2023/02/06 01:01:25;;;;;;;28.00;4.75;;;3.30;99.90;;;;;;6189006;23;20059;-72
2023/02/06 01:03:54;;;;;;;32.13;5.03;;;3.20;99.90;;;;;;6186463;23;20342;-72
2023/02/06 01:06:19;;;;;;;24.05;4.32;;;3.20;99.90;;;;;;6188401;23;20005;-72
2023/02/06 01:08:46;;;;;;;28.60;4.82;;;3.20;99.90;;;;;;6188396;23;20041;-72
2023/02/06 01:11:17;;;;;;;24.98;4.28;;;3.20;99.90;;;;;;6187960;23;20458;-72
2023/02/06 01:13:44;;;;;;;25.20;3.83;;;3.10;99.90;;;;;;6189063;23;20430;-72
2023/02/06 01:16:12;;;;;;;23.80;4.35;;;3.00;99.90;;;;;;6188565;23;20021;-72
2023/02/06 01:18:38;;;;;;;13.77;3.08;;;3.10;99.90;;;;;;6187902;23;20015;-72
2023/02/06 01:21:13;;;;;;;21.67;3.40;;;3.00;99.90;;;;;;6188326;23;20308;-72
2023/02/06 01:23:39;;;;;;;25.00;4.45;;;3.10;99.90;;;;;;6188164;23;20028;-72
2023/02/06 01:26:07;;;;;;;25.83;4.07;;;3.20;99.90;;;;;;6187839;23;20413;-72
2023/02/06 01:28:36;;;;;;;27.42;4.63;;;3.40;99.90;;;;;;6187790;23;20016;-72
2023/02/06 01:31:11;;;;;;;28.63;4.13;;;3.50;99.90;;;;;;6188450;23;20013;-72
2023/02/06 01:33:37;;;;;;;34.88;6.43;;;3.50;99.90;;;;;;6188266;23;20080;-72
2023/02/06 01:36:02;;;;;;;26.38;4.30;;;3.70;99.90;;;;;;6188214;23;20048;-72
2023/02/06 01:38:28;;;;;;;31.67;5.38;;;3.80;99.90;;;;;;6188193;23;20084;-72
2023/02/06 01:40:58;;;;;;;38.53;5.40;;;3.90;99.90;;;;;;6186301;23;20084;-72
2023/02/06 01:43:29;;;;;;;30.40;4.60;;;3.80;99.90;;;;;;6187940;23;20009;-72
2023/02/06 01:45:54;;;;;;;26.52;3.80;;;4.00;99.90;;;;;;6188171;23;20013;-72
2023/02/06 01:48:33;;;;;;;25.05;4.32;;;4.10;99.90;;;;;;6188051;23;20032;-72
2023/02/06 01:51:00;;;;;;;23.67;4.20;;;4.00;99.90;;;;;;6187944;23;20334;-72
2023/02/06 01:53:27;;;;;;;28.83;4.45;;;4.10;99.90;;;;;;6186144;23;20017;-72
2023/02/06 01:55:55;;;;;;;25.08;3.80;;;4.10;99.90;;;;;;6186024;23;20378;-72
2023/02/06 01:58:32;;;;;;;28.20;5.07;;;4.20;99.90;;;;;;6187856;23;20017;-72
2023/02/06 02:01:00;;;;;;;34.60;5.20;;;4.20;99.90;;;;;;6186109;23;20073;-72
2023/02/06 02:03:27;;;;;;;28.17;5.18;;;4.30;99.90;;;;;;6185966;23;20088;-72
2023/02/06 02:05:58;;;;;;;35.13;4.47;;;4.20;99.90;;;;;;6187893;23;20020;-72
2023/02/06 02:08:35;;;;;;;34.05;5.57;;;4.40;99.90;;;;;;6187508;23;20446;-72
2023/02/06 02:11:02;;;;;;;30.90;4.35;;;4.40;99.90;;;;;;6161230;23;20023;-72
2023/02/06 02:13:28;;;;;;;24.10;3.92;;;4.40;99.90;;;;;;6187816;23;20040;-72
2023/02/06 02:16:03;;;;;;;24.08;4.25;;;4.40;99.90;;;;;;6187922;23;20338;-72
2023/02/06 02:18:44;;;;;;;25.42;4.05;;;4.60;99.90;;;;;;6187920;23;20051;-72
2023/02/06 02:21:39;;;;;;;30.17;4.43;;;4.40;99.90;;;;;;6188270;23;20043;-72
2023/02/06 02:24:08;;;;;;;29.83;4.63;;;4.60;99.90;;;;;;6187669;23;20048;-72
2023/02/06 02:27:09;;;;;;;25.65;4.75;;;4.50;99.90;;;;;;6187684;23;20017;-72
2023/02/06 02:30:12;;;;;;;34.45;5.63;;;4.60;99.90;;;;;;6187363;23;20454;-72
2023/02/06 02:32:58;;;;;;;29.75;4.70;;;4.60;99.90;;;;;;6187680;23;20350;-72
2023/02/06 02:35:49;;;;;;;28.80;4.55;;;4.60;99.90;;;;;;6156486;23;20017;-73
2023/02/06 02:38:58;;;;;;;35.13;5.97;;;4.60;99.90;;;;;;6185711;23;20138;-72
2023/02/06 02:41:47;;;;;;;30.67;4.72;;;4.60;99.90;;;;;;6187560;23;20013;-72
2023/02/06 02:44:15;;;;;;;27.27;4.63;;;4.60;99.90;;;;;;6188032;23;20016;-72
2023/02/06 02:46:48;;;;;;;34.67;4.47;;;4.60;99.90;;;;;;6187879;23;20021;-72
2023/02/06 02:49:18;;;;;;;30.92;5.32;;;4.60;99.90;;;;;;6187136;23;20465;-72
2023/02/06 02:51:46;;;;;;;37.45;5.97;;;4.60;99.90;;;;;;6187433;23;20020;-72
2023/02/06 02:54:11;;;;;;;27.20;4.68;;;4.40;99.90;;;;;;6187090;23;20500;-72
2023/02/06 02:56:37;;;;;;;27.30;4.10;;;4.30;99.90;;;;;;6187438;23;20013;-72
2023/02/06 02:59:12;;;;;;;39.45;5.68;;;4.30;99.90;;;;;;6187392;23;20019;-72
2023/02/06 03:01:49;;;;;;;36.33;4.55;;;4.20;99.90;;;;;;6185633;23;20056;-72
2023/02/06 03:04:21;;;;;;;29.27;4.70;;;4.30;99.90;;;;;;6187401;23;20017;-72
2023/02/06 03:07:21;;;;;;;29.85;4.47;;;4.10;99.90;;;;;;6187469;23;20035;-72
2023/02/06 03:10:21;;;;;;;28.52;4.28;;;4.00;99.90;;;;;;6187258;23;20013;-73
2023/02/06 03:13:16;;;;;;;25.52;4.20;;;4.00;99.90;;;;;;6185452;23;20013;-73
2023/02/06 03:15:48;;;;;;;24.52;4.35;;;4.10;99.90;;;;;;6187231;23;20013;-72
2023/02/06 03:18:21;;;;;;;33.05;5.07;;;4.00;99.90;;;;;;6187193;23;20084;-72
2023/02/06 03:20:47;;;;;;;31.25;5.05;;;4.00;99.90;;;;;;6187507;23;20450;-72
2023/02/06 03:23:19;;;;;;;30.30;5.57;;;4.10;99.90;;;;;;6186752;23;20023;-72
2023/02/06 03:25:47;;;;;;;25.33;4.13;;;4.00;99.90;;;;;;6186839;23;20461;-72
2023/02/06 03:28:17;;;;;;;26.35;4.35;;;4.00;99.90;;;;;;6186640;23;20345;-72
2023/02/06 03:30:45;;;;;;;29.85;4.28;;;4.00;99.90;;;;;;6185213;23;20020;-72
2023/02/06 03:33:13;;;;;;;28.13;4.22;;;4.00;99.90;;;;;;6187054;23;20024;-72
2023/02/06 03:35:39;;;;;;;31.90;5.63;;;4.00;99.90;;;;;;6187032;23;20021;-72
2023/02/06 03:38:07;;;;;;;26.23;4.60;;;3.70;99.90;;;;;;6186991;23;20017;-72
2023/02/06 03:40:34;;;;;;;23.02;4.13;;;3.70;99.90;;;;;;6187068;23;20020;-72
2023/02/06 03:43:02;;;;;;;23.45;3.83;;;3.70;99.90;;;;;;6186700;23;20010;-72
2023/02/06 03:45:35;;;;;;;20.00;4.45;;;3.40;99.90;;;;;;6187203;23;20009;-72
2023/02/06 03:48:06;;;;;;;28.35;4.25;;;3.30;99.90;;;;;;6187260;23;20012;-72
2023/02/06 03:50:34;;;;;;;27.30;3.40;;;3.20;99.90;;;;;;6187121;23;20012;-72
2023/02/06 03:53:03;;;;;;;24.60;3.95;;;3.00;99.90;;;;;;6186785;23;20055;-72
2023/02/06 03:55:28;;;;;;;24.42;3.70;;;2.80;99.90;;;;;;6187092;23;20315;-72
2023/02/06 03:58:00;;;;;;;24.70;5.13;;;2.80;99.90;;;;;;6187064;23;20076;-72
2023/02/06 04:00:28;;;;;;;24.52;4.80;;;2.50;99.90;;;;;;6187018;23;20330;-72
2023/02/06 04:02:55;;;;;;;23.98;3.53;;;2.40;99.90;;;;;;6186850;23;20023;-72
2023/02/06 04:05:21;;;;;;;29.02;4.00;;;2.50;99.90;;;;;;6185311;23;20092;-72
2023/02/06 04:07:47;;;;;;;32.42;4.88;;;2.40;99.90;;;;;;6186710;23;20044;-72
2023/02/06 04:10:12;;;;;;;30.98;4.57;;;2.50;99.90;;;;;;6186739;23;20005;-72
2023/02/06 04:12:38;;;;;;;23.25;3.88;;;2.50;99.90;;;;;;6186748;23;20398;-72
2023/02/06 04:15:04;;;;;;;26.45;4.63;;;2.40;99.90;;;;;;6185232;23;20015;-72
2023/02/06 04:17:30;;;;;;;30.27;4.25;;;2.30;99.90;;;;;;6186690;23;20120;-72
2023/02/06 04:19:56;;;;;;;28.00;5.13;;;2.40;99.90;;;;;;6160086;23;20461;-72
2023/02/06 04:22:21;;;;;;;40.88;5.95;;;2.30;99.90;;;;;;6185161;23;20008;-72
2023/02/06 04:24:47;;;;;;;33.25;4.53;;;2.30;99.90;;;;;;6186602;23;20114;-72
2023/02/06 04:27:14;;;;;;;34.08;4.57;;;2.40;99.90;;;;;;6184607;23;20021;-72
2023/02/06 04:29:39;;;;;;;28.45;3.95;;;2.40;99.90;;;;;;6186856;23;20013;-72
2023/02/06 04:32:05;;;;;;;26.30;3.60;;;2.20;99.90;;;;;;6186252;23;20465;-72
2023/02/06 04:34:32;;;;;;;22.98;3.90;;;2.30;99.90;;;;;;6184150;23;20027;-72
2023/02/06 04:36:59;;;;;;;20.25;3.17;;;2.20;99.90;;;;;;6186405;23;20040;-72
2023/02/06 04:39:24;;;;;;;23.75;3.70;;;2.20;99.90;;;;;;6186438;23;20036;-72
2023/02/06 04:41:50;;;;;;;30.90;4.10;;;2.30;99.90;;;;;;6186346;23;20013;-72
2023/02/06 04:44:16;;;;;;;25.38;3.42;;;2.50;99.90;;;;;;6184515;23;20508;-72
2023/02/06 04:46:42;;;;;;;29.23;5.18;;;2.60;99.90;;;;;;6186602;23;20009;-72
2023/02/06 04:49:09;;;;;;;27.40;5.15;;;2.70;99.90;;;;;;6185657;23;20013;-72
2023/02/06 04:51:35;;;;;;;23.92;4.22;;;2.60;99.90;;;;;;6186416;23;20018;-72
2023/02/06 04:54:01;;;;;;;29.35;4.15;;;2.50;99.90;;;;;;6186489;23;20338;-72
2023/02/06 04:56:27;;;;;;;30.23;4.68;;;2.50;99.90;;;;;;6186472;23;20054;-72
2023/02/06 04:58:52;;;;;;;24.83;4.28;;;2.50;99.90;;;;;;6186091;23;20009;-72
2023/02/06 05:01:21;;;;;;;23.92;3.90;;;2.40;99.90;;;;;;6186591;23;20013;-72
2023/02/06 05:03:47;;;;;;;34.47;5.95;;;2.50;99.90;;;;;;6186351;23;20096;-72
2023/02/06 05:06:13;;;;;;;32.63;5.00;;;2.50;99.90;;;;;;6186390;23;20013;-72
2023/02/06 05:08:39;;;;;;;30.05;4.80;;;2.40;99.90;;;;;;6186440;23;20092;-72
2023/02/06 05:11:05;;;;;;;30.58;5.03;;;2.30;99.90;;;;;;6184533;23;20048;-72
2023/02/06 05:13:35;;;;;;;23.80;4.20;;;2.30;99.90;;;;;;6184936;23;20020;-72
2023/02/06 05:16:09;;;;;;;25.80;4.47;;;2.40;99.90;;;;;;6186500;23;20013;-72
2023/02/06 05:18:35;;;;;;;31.95;5.55;;;2.10;99.90;;;;;;6184602;23;20088;-72
2023/02/06 05:21:01;;;;;;;30.50;4.85;;;2.10;99.90;;;;;;6186349;23;20098;-72
2023/02/06 05:23:27;;;;;;;29.10;4.75;;;2.10;99.90;;;;;;6187222;23;20052;-72
2023/02/06 05:25:52;;;;;;;28.30;4.68;;;2.10;99.90;;;;;;6185758;23;20041;-72
2023/02/06 05:28:18;;;;;;;22.65;3.80;;;2.20;99.90;;;;;;6185703;23;20028;-72
2023/02/06 05:30:44;;;;;;;31.08;4.40;;;2.20;99.90;;;;;;6184389;23;20020;-72
2023/02/06 05:33:09;;;;;;;33.78;4.68;;;2.30;99.90;;;;;;6184432;23;20017;-72
2023/02/06 05:35:37;;;;;;;30.65;4.18;;;2.20;99.90;;;;;;6186287;23;20068;-72
2023/02/06 05:38:03;;;;;;;28.08;4.63;;;2.30;99.90;;;;;;6186236;23;20374;-72
2023/02/06 05:40:28;;;;;;;29.65;3.92;;;2.20;99.90;;;;;;6186237;23;20016;-72
2023/02/06 05:42:55;;;;;;;29.85;4.05;;;2.30;99.90;;;;;;6184357;23;20020;-72
2023/02/06 05:45:21;;;;;;;30.33;4.28;;;2.20;99.90;;;;;;6186956;23;20315;-72
2023/02/06 05:47:47;;;;;;;38.88;7.40;;;2.40;99.90;;;;;;6188190;23;20080;-72
2023/02/06 05:50:13;;;;;;;38.20;5.43;;;2.40;99.90;;;;;;6186191;23;20044;-72
2023/02/06 05:52:38;;;;;;;28.67;6.22;;;2.40;99.90;;;;;;6161229;23;20088;-72
2023/02/06 05:55:04;;;;;;;32.72;6.65;;;2.60;99.90;;;;;;6188000;23;20338;-72
2023/02/06 05:57:30;;;;;;;28.38;5.10;;;2.50;99.90;;;;;;6186258;23;20020;-72
2023/02/06 05:59:56;;;;;;;25.75;4.88;;;2.60;99.90;;;;;;6187951;23;20009;-72
2023/02/06 06:02:21;;;;;;;32.15;4.85;;;2.40;99.90;;;;;;6186088;23;20068;-72
2023/02/06 06:04:47;;;;;;;28.65;4.95;;;2.30;99.90;;;;;;6188012;23;20373;-72
2023/02/06 06:07:13;;;;;;;30.13;5.20;;;2.40;99.90;;;;;;6186016;23;20443;-72
2023/02/06 06:09:38;;;;;;;32.58;5.90;;;2.30;99.90;;;;;;6186011;23;20020;-72
2023/02/06 06:12:04;;;;;;;26.20;5.22;;;2.40;99.90;;;;;;6185893;23;20013;-72
2023/02/06 06:14:30;;;;;;;32.97;5.35;;;2.30;99.90;;;;;;6185933;23;20021;-72
2023/02/06 06:16:55;;;;;;;27.48;5.60;;;2.40;99.90;;;;;;6186198;23;20343;-72
2023/02/06 06:19:21;;;;;;;27.83;4.25;;;2.60;99.90;;;;;;6187753;23;20024;-73
2023/02/06 06:21:47;;;;;;;34.88;4.95;;;2.50;99.90;;;;;;6185877;23;20013;-75
2023/02/06 06:24:12;;;;;;;28.95;5.30;;;2.70;99.90;;;;;;6185812;23;20489;-75
2023/02/06 06:26:38;;;;;;;42.10;5.40;;;2.70;99.90;;;;;;6185805;23;20067;-72
2023/02/06 06:29:04;;;;;;;27.88;4.40;;;2.70;99.90;;;;;;6187087;23;20009;-73
2023/02/06 06:31:30;;;;;;;35.28;6.20;;;2.70;99.90;;;;;;6186021;23;20017;-73
2023/02/06 06:33:55;;;;;;;33.65;4.82;;;2.60;99.90;;;;;;6185634;23;20079;-73
2023/02/06 06:36:21;;;;;;;29.20;4.57;;;2.80;99.90;;;;;;6187460;23;20012;-75
2023/02/06 06:38:47;;;;;;;32.20;5.25;;;2.60;99.90;;;;;;6187549;23;20009;-74
2023/02/06 06:41:13;;;;;;;33.08;4.82;;;2.60;99.90;;;;;;6187541;23;20036;-74
2023/02/06 06:43:39;;;;;;;32.65;4.85;;;2.60;99.90;;;;;;6187135;23;20049;-75
2023/02/06 06:46:05;;;;;;;30.23;4.65;;;2.60;99.90;;;;;;6185777;23;20013;-75
2023/02/06 06:48:31;;;;;;;29.42;5.07;;;2.50;99.90;;;;;;6185697;23;20438;-75
2023/02/06 06:50:57;;;;;;;32.05;4.72;;;2.40;99.90;;;;;;6186367;23;20084;-74
2023/02/06 06:53:23;;;;;;;26.63;4.43;;;2.50;99.90;;;;;;6187468;23;20375;-73
2023/02/06 06:55:48;;;;;;;34.50;5.60;;;2.40;99.90;;;;;;6186992;23;20346;-73
2023/02/06 06:58:14;;;;;;;32.80;5.18;;;2.50;99.90;;;;;;6187354;23;20454;-73
2023/02/06 07:00:40;;;;;;;30.48;5.18;;;2.70;99.90;;;;;;6187776;23;20024;-73
2023/02/06 07:03:06;;;;;;;29.85;6.22;;;2.60;99.90;;;;;;6187453;23;20013;-73
2023/02/06 07:05:33;;;;;;;34.85;4.75;;;2.70;99.90;;;;;;6187402;23;20040;-73
2023/02/06 07:07:59;;;;;;;38.25;5.50;;;2.50;99.90;;;;;;6187351;23;20009;-73
2023/02/06 07:10:25;;;;;;;33.38;6.15;;;2.60;99.90;;;;;;6187382;23;20059;-73
2023/02/06 07:12:55;;;;;;;30.80;4.93;;;2.70;99.90;;;;;;6187500;23;20016;-74
2023/02/06 07:15:21;;;;;;;32.88;5.53;;;2.60;99.90;;;;;;6185999;23;20009;-72
2023/02/06 07:17:47;;;;;;;33.58;4.65;;;2.50;99.90;;;;;;6187194;23;20021;-74
2023/02/06 07:20:13;;;;;;;24.35;4.18;;;2.50;99.90;;;;;;6187316;23;20325;-74
2023/02/06 07:22:39;;;;;;;32.90;5.63;;;2.40;99.90;;;;;;6185686;23;20059;-74
2023/02/06 07:25:05;;;;;;;30.65;4.70;;;2.50;99.90;;;;;;6187331;23;20362;-73
2023/02/06 07:27:31;;;;;;;34.28;4.97;;;2.60;99.90;;;;;;6185134;23;20017;-74
2023/02/06 07:29:56;;;;;;;33.75;7.00;;;2.60;99.90;;;;;;6185400;23;20055;-76
2023/02/06 07:32:22;;;;;;;31.13;5.40;;;2.70;99.90;;;;;;6160794;23;20143;-76
2023/02/06 07:34:48;;;;;;;30.42;5.43;;;2.60;99.90;;;;;;6185289;23;20028;-76
2023/02/06 07:37:13;;;;;;;30.15;5.78;;;2.70;99.90;;;;;;6187268;23;20333;-77
2023/02/06 07:39:39;;;;;;;30.75;6.28;;;2.80;99.90;;;;;;6185199;23;20456;-76
2023/02/06 07:42:05;;;;;;;37.88;7.03;;;2.70;99.90;;;;;;6185196;23;20017;-76
2023/02/06 07:44:31;;;;;;;30.77;5.50;;;2.70;99.90;;;;;;6186883;23;20044;-76
2023/02/06 07:46:57;;;;;;;38.13;7.47;;;2.90;99.90;;;;;;6186746;23;20338;-76
2023/02/06 07:49:23;;;;;;;37.58;5.22;;;3.10;99.90;;;;;;6186990;23;20010;-76
2023/02/06 07:51:49;;;;;;;29.90;6.47;;;3.10;99.90;;;;;;6185100;23;20021;-76
2023/02/06 07:54:15;;;;;;;35.17;6.25;;;3.10;99.90;;;;;;6185003;23;20017;-76
2023/02/06 07:56:41;;;;;;;28.52;5.72;;;3.10;99.90;;;;;;6184879;23;20021;-75
2023/02/06 07:59:06;;;;;;;32.55;5.72;;;3.10;99.90;;;;;;6186775;23;20013;-76
2023/02/06 08:01:32;;;;;;;34.55;7.15;;;3.10;99.90;;;;;;6184859;23;20028;-76
2023/02/06 08:03:58;;;;;;;34.72;5.55;;;3.20;99.90;;;;;;6184879;23;20013;-76
2023/02/06 08:06:24;;;;;;;36.70;6.68;;;3.10;99.90;;;;;;6184837;23;20020;-76
2023/02/06 08:08:50;;;;;;;42.08;7.10;;;3.10;99.90;;;;;;6186625;23;20088;-76
2023/02/06 08:11:19;;;;;;;31.98;5.70;;;3.20;99.90;;;;;;6184807;23;20040;-76
2023/02/06 08:13:46;;;;;;;44.80;6.90;;;3.40;99.90;;;;;;6186326;23;20013;-76
2023/02/06 08:16:20;;;;;;;36.63;6.00;;;3.40;99.90;;;;;;6186565;23;20063;-76
2023/02/06 08:18:46;;;;;;;40.15;5.80;;;3.40;99.90;;;;;;6187119;23;20049;-76
2023/02/06 08:21:14;;;;;;;37.70;6.30;;;3.60;99.90;;;;;;6184850;23;20316;-76
2023/02/06 08:23:40;;;;;;;39.78;6.53;;;3.90;99.90;;;;;;6186461;23;20016;-76
2023/02/06 08:26:09;;;;;;;33.38;6.25;;;4.00;99.90;;;;;;6186622;23;20077;-76
2023/02/06 08:28:36;;;;;;;31.20;5.78;;;3.80;99.90;;;;;;6184519;23;20009;-76
2023/02/06 08:31:17;;;;;;;36.53;6.88;;;3.80;99.90;;;;;;6159814;23;20071;-75
2023/02/06 08:33:44;;;;;;;34.55;7.45;;;4.00;99.90;;;;;;6186729;23;20011;-76
2023/02/06 08:36:10;;;;;;;30.58;6.72;;;4.10;99.90;;;;;;6159838;23;20017;-76
2023/02/06 08:38:36;;;;;;;31.13;7.70;;;4.00;99.90;;;;;;6184973;23;20019;-76
2023/02/06 08:41:03;;;;;;;34.25;6.10;;;4.20;99.90;;;;;;6159797;23;20032;-75
2023/02/06 08:43:29;;;;;;;33.22;6.50;;;4.20;99.90;;;;;;6186328;23;20044;-75
2023/02/06 08:45:56;;;;;;;30.20;5.57;;;4.20;99.90;;;;;;6159783;23;20324;-76
2023/02/06 08:48:22;;;;;;;35.33;6.30;;;4.10;99.90;;;;;;6184677;23;20092;-76
2023/02/06 08:50:48;;;;;;;39.42;5.75;;;4.20;99.90;;;;;;6184523;23;20434;-76
2023/02/06 08:53:13;;;;;;;39.40;6.28;;;4.50;99.90;;;;;;6184603;23;20048;-76
2023/02/06 08:55:39;;;;;;;35.83;6.68;;;4.40;99.90;;;;;;6185033;23;20009;-76
2023/02/06 08:58:05;;;;;;;41.15;6.35;;;4.70;99.90;;;;;;6184614;23;20009;-76
2023/02/06 09:00:31;;;;;;;36.20;7.72;;;4.80;99.90;;;;;;6159627;23;20442;-76
2023/02/06 09:02:56;;;;;;;46.58;7.78;;;4.70;99.90;;;;;;6184566;23;20032;-77
2023/02/06 09:05:23;;;;;;;35.20;6.32;;;5.00;99.90;;;;;;6184595;23;20009;-76
2023/02/06 09:07:49;;;;;;;30.17;7.25;;;4.90;99.90;;;;;;6184499;23;20013;-76
2023/02/06 09:10:15;;;;;;;36.92;6.60;;;5.00;99.90;;;;;;6186388;23;20067;-76
2023/02/06 09:12:41;;;;;;;43.13;7.20;;;4.90;99.90;;;;;;6186339;23;20439;-76
2023/02/06 09:15:07;;;;;;;45.38;7.00;;;4.90;99.90;;;;;;6184474;23;20013;-76
2023/02/06 09:17:32;;;;;;;39.45;7.55;;;5.10;99.90;;;;;;6184431;23;20512;-76
2023/02/06 09:19:59;;;;;;;39.45;8.38;;;5.20;99.90;;;;;;6184826;23;20016;-76
2023/02/06 09:22:25;;;;;;;40.80;7.72;;;5.20;99.90;;;;;;6187747;23;20016;-76
2023/02/06 09:24:51;;;;;;;38.60;7.05;;;5.30;99.90;;;;;;6186287;23;20063;-76
2023/02/06 09:27:16;;;;;;;44.08;8.23;;;5.30;99.90;;;;;;6161403;23;20373;-76
2023/02/06 09:29:42;;;;;;;43.28;8.45;;;5.40;99.90;;;;;;6161367;23;20503;-76
2023/02/06 09:32:08;;;;;;;41.80;7.85;;;5.20;99.90;;;;;;6161492;23;20349;-76
2023/02/06 09:34:34;;;;;;;36.58;6.95;;;5.30;99.90;;;;;;6161542;23;20017;-77
2023/02/06 09:37:04;;;;;;;45.78;8.07;;;5.50;99.90;;;;;;6186331;23;20075;-77
2023/02/06 09:39:31;;;;;;;44.53;6.97;;;5.40;99.90;;;;;;6161461;23;20020;-76
2023/02/06 09:42:25;;;;;;;39.17;7.90;;;5.40;99.90;;;;;;6188208;23;20017;-76
2023/02/06 09:45:15;;;;;;;45.88;8.15;;;5.60;99.90;;;;;;6186212;23;20017;-77
2023/02/06 09:47:51;;;;;;;42.30;7.22;;;5.70;99.90;;;;;;6187517;23;20009;-77
2023/02/06 09:50:31;;;;;;;38.72;7.75;;;5.70;99.90;;;;;;6161574;23;20017;-77
2023/02/06 09:53:08;;;;;;;46.75;10.43;;;5.80;99.90;;;;;;6161417;23;20446;-77
2023/02/06 09:55:41;;;;;;;38.28;8.20;;;5.70;99.90;;;;;;6161460;23;20024;-78
2023/02/06 09:58:31;;;;;;;40.58;8.77;;;5.60;99.90;;;;;;6186123;23;20019;-73
2023/02/06 10:01:07;;;;;;;47.67;8.95;;;5.70;99.90;;;;;;6186166;23;20107;-74
2023/02/06 10:03:41;;;;;;;51.80;9.55;;;5.80;99.90;;;;;;6186122;23;20530;-73
2023/02/06 10:06:31;;;;;;;34.92;8.23;;;5.90;99.90;;;;;;6186078;23;20017;-72
2023/02/06 10:09:17;;;;;;;43.13;10.07;;;6.10;99.90;;;;;;6186005;23;20470;-73
2023/02/06 10:12:00;;;;;;;39.35;8.52;;;5.90;99.90;;;;;;6161102;23;20013;-73
2023/02/06 10:14:43;;;;;;;51.83;10.35;;;6.00;99.90;;;;;;6161157;23;20087;-73
2023/02/06 10:17:16;;;;;;;43.42;9.65;;;6.10;99.90;;;;;;6161369;23;20021;-73
2023/02/06 10:19:56;;;;;;;39.50;10.13;;;6.20;99.90;;;;;;6185916;23;20044;-73
2023/02/06 10:22:35;;;;;;;37.78;9.05;;;6.10;99.90;;;;;;6185935;23;20068;-72
2023/02/06 10:25:29;;;;;;;41.00;9.35;;;6.20;99.90;;;;;;6187793;23;20035;-72
2023/02/06 10:28:08;;;;;;;43.78;9.13;;;6.40;99.90;;;;;;6187439;23;20012;-71
2023/02/06 10:30:54;;;;;;;32.65;9.15;;;6.50;99.90;;;;;;6160966;23;20025;-72
2023/02/06 10:33:35;;;;;;;42.40;8.85;;;6.50;99.90;;;;;;6185481;23;20049;-73
2023/02/06 10:36:21;;;;;;;41.25;8.55;;;6.50;99.90;;;;;;6185969;23;20040;-73
2023/02/06 10:39:23;;;;;;;45.33;9.15;;;6.70;99.90;;;;;;6185990;23;20017;-73
2023/02/06 10:42:04;;;;;;;34.20;8.20;;;6.90;99.90;;;;;;6185913;23;20013;-73
2023/02/06 10:44:49;;;;;;;40.92;9.30;;;6.90;99.90;;;;;;6187582;23;20390;-75
2023/02/06 10:47:37;;;;;;;44.33;9.13;;;7.00;99.90;;;;;;6187847;23;20024;-75
2023/02/06 10:50:26;;;;;;;36.47;9.23;;;6.90;99.90;;;;;;6187649;23;20339;-74
2023/02/06 10:52:56;;;;;;;34.00;7.40;;;7.10;99.90;;;;;;6187445;23;20067;-75
2023/02/06 10:55:42;;;;;;;35.08;7.72;;;7.10;99.90;;;;;;6160712;23;20052;-74
2023/02/06 10:58:27;;;;;;;39.60;7.55;;;7.10;99.90;;;;;;6160792;23;20009;-74
2023/02/06 11:00:54;;;;;;;31.50;7.30;;;7.20;99.90;;;;;;6159895;23;20040;-75
2023/02/06 11:03:25;;;;;;;32.97;7.55;;;7.10;99.90;;;;;;6185910;23;20068;-74
2023/02/06 11:05:51;;;;;;;24.63;6.90;;;7.40;99.90;;;;;;6184124;23;20013;-75
2023/02/06 11:08:26;;;;;;;32.33;7.10;;;7.60;99.90;;;;;;6159324;23;20083;-77
2023/02/06 11:10:53;;;;;;;33.35;7.32;;;7.70;99.90;;;;;;6159820;23;20048;-75
2023/02/06 11:13:37;;;;;;;30.40;6.07;;;7.60;99.90;;;;;;6160522;23;20032;-75
2023/02/06 11:16:15;;;;;;;26.58;6.35;;;7.70;99.90;;;;;;6185505;23;20013;-78
2023/02/06 11:18:46;;;;;;;18.70;5.53;;;7.80;99.90;;;;;;6185983;23;20017;-75
2023/02/06 11:21:14;;;;;;;29.70;6.43;;;7.80;99.90;;;;;;6160495;23;20096;-76
2023/02/06 11:23:41;;;;;;;20.73;5.68;;;7.90;99.90;;;;;;6185163;23;20463;-76
2023/02/06 11:26:15;;;;;;;29.98;5.75;;;8.10;99.90;;;;;;6185356;23;20013;-77
2023/02/06 11:28:51;;;;;;;28.27;6.45;;;8.10;99.90;;;;;;6184937;23;20028;-76
2023/02/06 11:31:19;;;;;;;26.77;6.85;;;8.30;99.90;;;;;;6185231;23;20044;-76
2023/02/06 11:33:54;;;;;;;27.27;6.53;;;8.40;99.90;;;;;;6160448;23;20059;-73
2023/02/06 11:36:34;;;;;;;28.90;7.15;;;8.50;99.90;;;;;;6160392;23;20016;-72
2023/02/06 11:39:06;;;;;;;25.58;6.47;;;8.90;99.90;;;;;;6187069;23;20005;-72
2023/02/06 11:41:32;;;;;;;25.98;7.18;;;8.80;99.90;;;;;;6185145;23;20345;-73
2023/02/06 11:44:05;;;;;;;28.20;6.45;;;9.00;99.90;;;;;;6186652;23;20009;-73
2023/02/06 11:46:35;;;;;;;24.48;6.93;;;9.10;99.90;;;;;;6185204;23;20009;-73
2023/02/06 11:49:27;;;;;;;26.67;6.00;;;9.10;99.90;;;;;;6185191;23;20020;-73
2023/02/06 11:51:59;;;;;;;26.27;5.10;;;9.20;99.90;;;;;;6186597;23;20009;-73
2023/02/06 11:54:33;;;;;;;23.48;5.80;;;9.20;99.90;;;;;;6185090;23;20382;-72
2023/02/06 11:57:20;;;;;;;25.13;6.25;;;9.30;99.90;;;;;;6185201;23;20017;-75
2023/02/06 11:59:55;;;;;;;24.33;5.15;;;9.30;99.90;;;;;;6185969;23;20052;-74
2023/02/06 12:02:30;;;;;;;19.85;4.53;;;9.40;99.90;;;;;;6185715;23;20005;-73
2023/02/06 12:05:06;;;;;;;25.63;5.10;;;9.40;99.90;;;;;;6184989;23;20021;-75
2023/02/06 12:07:40;;;;;;;21.80;4.90;;;9.40;99.90;;;;;;6184778;23;20017;-75
2023/02/06 12:10:13;;;;;;;22.05;4.78;;;9.20;99.90;;;;;;6160063;23;20041;-74
2023/02/06 12:12:44;;;;;;;23.95;4.78;;;9.20;99.90;;;;;;6186378;23;20422;-75
2023/02/06 12:15:13;;;;;;;22.63;4.50;;;9.30;99.90;;;;;;6184842;23;20020;-74
2023/02/06 12:17:50;;;;;;;16.30;4.63;;;9.40;99.90;;;;;;6184872;23;20096;-74
2023/02/06 12:20:22;;;;;;;21.13;4.75;;;9.40;99.90;;;;;;6184868;23;20377;-74
2023/02/06 12:23:05;;;;;;;20.50;4.05;;;9.60;99.90;;;;;;6184690;23;20084;-74
2023/02/06 12:25:40;;;;;;;19.90;4.00;;;9.70;99.90;;;;;;6185148;23;20013;-70
2023/02/06 12:28:27;;;;;;;22.05;4.18;;;9.90;99.90;;;;;;6184555;23;20025;-79
2023/02/06 12:31:21;;;;;;;21.75;5.70;;;10.00;99.90;;;;;;6185260;23;20020;-76
2023/02/06 12:33:53;;;;;;;16.45;3.63;;;10.10;99.90;;;;;;6159186;23;20112;-76
2023/02/06 12:36:24;;;;;;;19.45;4.25;;;10.20;99.90;;;;;;6184687;23;20013;-76
2023/02/06 12:39:12;;;;;;;19.90;3.88;;;10.40;99.90;;;;;;6186665;23;20307;-76
2023/02/06 12:41:54;;;;;;;19.80;3.75;;;10.70;99.90;;;;;;6184742;23;20009;-76
2023/02/06 12:44:46;;;;;;;21.90;3.90;;;10.90;99.90;;;;;;6184580;23;20065;-76
2023/02/06 12:47:28;;;;;;;17.60;3.95;;;10.90;99.90;;;;;;6184622;23;20379;-76
2023/02/06 12:50:12;;;;;;;20.40;4.45;;;10.80;99.90;;;;;;6186563;23;20091;-75
2023/02/06 12:53:01;;;;;;;15.48;3.72;;;10.50;99.90;;;;;;6159858;23;20092;-76
2023/02/06 12:55:51;;;;;;;14.35;3.50;;;10.40;99.90;;;;;;6185613;23;20013;-76
2023/02/06 12:58:41;;;;;;;18.02;4.03;;;10.40;99.90;;;;;;6188297;23;20020;-76
2023/02/06 13:01:26;;;;;;;14.52;3.88;;;10.50;99.90;;;;;;6186713;23;20017;-76
2023/02/06 13:03:55;;;;;;;16.95;3.90;;;10.50;99.90;;;;;;6186659;23;20481;-76